KHDN/HDN METAR and TAF weather

Enter ICAO airport designator
Station Type Date Time Source
KHDN METAR 2020/11/27 02:56 UTC NOAA

KHDN 270256Z AUTO 00000KT 10SM CLR M08/M10 A3023 RMK AO2 SLP289 T10781100 51020 FZRANO


Station Type Date Time Source
KHDN Decoded METAR 2020/11/27 02:56 UTC NOAA

Hayden, Yampa Valley Airport, CO, United States (KHDN) 40-29N 107-13W
Nov 26, 2020 - 09:56 PM EST / 2020.11.27 0256 UTC
Wind: Calm:0
Visibility: 10 mile(s):0
Sky conditions: clear
Temperature: 18.0 F (-7.8 C)
Dew Point: 14.0 F (-10.0 C)
Relative Humidity: 84%
Pressure (altimeter): 30.23 in. Hg (1023 hPa)
Pressure tendency: 0.06 inches (2.0 hPa) higher than three hours ago
ob: KHDN 270256Z AUTO 00000KT 10SM CLR M08/M10 A3023 RMK AO2 SLP289 T10781100 51020 FZRANO
cycle: 3

Station Type Date Time Source
KHDN TAF 2020/11/27 22:14 UTC NOAA

TAF
AMD KHDN 262214Z 2622/2718 26006KT P6SM VCSH SCT026 OVC035
TEMPO 2622/2624 5SM -SHSN BR BKN020
FM270000 28008KT P6SM VCSH SCT035 BKN045
FM270300 12007KT P6SM SCT060

Example: see airport list